Time;durP1;ratioP1;P1;durP2;ratioP2;P2;SDS_P1;SDS_P2;PMS_P1;PMS_P2;Temp;Humidity;BMP_temperature;BMP_pressure;BME280_temperature;BME280_humidity;BME280_pressure;Samples;Min_cycle;Max_cycle;Signal;HPM_P1;HPM_P2
2022/11/17 00:00:23;;;;;;;5.70;2.70;;;;;;;;;;5012831;28;20172;-68
2022/11/17 00:02:49;;;;;;;4.33;2.33;;;;;;;;;;5014196;28;20179;-68
2022/11/17 00:05:15;;;;;;;3.13;1.83;;;;;;;;;;5012528;28;20589;-68
2022/11/17 00:07:43;;;;;;;7.47;3.57;;;;;;;;;;5013744;28;20188;-69
2022/11/17 00:10:09;;;;;;;12.87;4.10;;;;;;;;;;5012468;28;20652;-67
2022/11/17 00:15:20;;;;;;;13.77;5.67;;;;;;;;;;5013858;28;20225;-69
2022/11/17 00:17:47;;;;;;;13.57;5.07;;;;;;;;;;5012373;28;20626;-68
2022/11/17 00:22:58;;;;;;;12.50;5.27;;;;;;;;;;5013827;28;20178;-68
2022/11/17 00:25:24;;;;;;;10.47;5.83;;;;;;;;;;5012151;28;20306;-69
2022/11/17 00:27:50;;;;;;;12.57;6.10;;;;;;;;;;5013692;28;20180;-69
2022/11/17 00:35:50;;;;;;;19.37;6.23;;;;;;;;;;5015943;28;20637;-70
2022/11/17 00:38:16;;;;;;;16.73;6.23;;;;;;;;;;5016383;28;20669;-66
2022/11/17 00:40:42;;;;;;;16.73;6.23;;;;;;;;;;5017876;28;20172;-68
2022/11/17 00:43:08;;;;;;;22.23;8.50;;;;;;;;;;5016099;28;20211;-69
2022/11/17 00:45:34;;;;;;;19.20;7.20;;;;;;;;;;5017518;28;20210;-68
2022/11/17 00:48:00;;;;;;;15.90;7.17;;;;;;;;;;5016045;28;20233;-69
2022/11/17 00:50:26;;;;;;;16.27;5.80;;;;;;;;;;5016082;28;20190;-69
2022/11/17 00:52:52;;;;;;;13.17;5.40;;;;;;;;;;5016079;28;20183;-69
2022/11/17 00:55:18;;;;;;;18.13;7.90;;;;;;;;;;5017228;28;20599;-70
2022/11/17 00:57:44;;;;;;;15.17;7.47;;;;;;;;;;5017563;28;20225;-68
2022/11/17 01:00:10;;;;;;;15.97;4.50;;;;;;;;;;5015920;28;20188;-69
2022/11/17 01:02:36;;;;;;;12.53;4.20;;;;;;;;;;5015992;28;20187;-67
2022/11/17 01:05:02;;;;;;;7.03;3.23;;;;;;;;;;5015680;28;20200;-69
2022/11/17 01:07:28;;;;;;;6.87;3.03;;;;;;;;;;5017183;28;20671;-69
2022/11/17 01:09:54;;;;;;;5.90;2.93;;;;;;;;;;5015627;28;20175;-68
2022/11/17 01:12:20;;;;;;;7.20;4.17;;;;;;;;;;5015498;28;20184;-69
2022/11/17 01:14:46;;;;;;;5.87;3.57;;;;;;;;;;5015561;28;20196;-69
2022/11/17 01:17:12;;;;;;;6.27;3.37;;;;;;;;;;5016744;28;20583;-68
2022/11/17 01:19:38;;;;;;;7.77;3.07;;;;;;;;;;5016842;28;20180;-67
2022/11/17 01:22:03;;;;;;;8.53;3.27;;;;;;;;;;5016697;28;20263;-68
2022/11/17 01:24:29;;;;;;;4.47;1.83;;;;;;;;;;5016535;28;20258;-67
2022/11/17 01:26:55;;;;;;;4.73;3.53;;;;;;;;;;5016815;28;20180;-69
2022/11/17 01:29:21;;;;;;;7.90;3.27;;;;;;;;;;5015397;28;20187;-69
2022/11/17 01:31:51;;;;;;;6.97;3.07;;;;;;;;;;5017004;28;20538;-68
2022/11/17 01:34:17;;;;;;;3.33;1.80;;;;;;;;;;5015085;28;20684;-68
2022/11/17 01:39:29;;;;;;;4.07;2.03;;;;;;;;;;5016794;28;20167;-69
2022/11/17 01:41:55;;;;;;;3.37;1.70;;;;;;;;;;5016348;28;20548;-68
2022/11/17 01:44:36;;;;;;;3.30;1.93;;;;;;;;;;5016410;28;20200;-68
2022/11/17 01:47:07;;;;;;;3.70;1.93;;;;;;;;;;5016380;28;20179;-68
2022/11/17 01:49:33;;;;;;;4.70;2.23;;;;;;;;;;5014964;28;20190;-67
2022/11/17 01:52:01;;;;;;;3.43;1.47;;;;;;;;;;5016093;28;20176;-69
2022/11/17 01:54:29;;;;;;;3.10;1.70;;;;;;;;;;5016260;28;20203;-68
2022/11/17 01:56:57;;;;;;;3.80;1.93;;;;;;;;;;5015904;28;20203;-68
2022/11/17 01:59:32;;;;;;;5.23;2.17;;;;;;;;;;5016137;28;20207;-68
2022/11/17 02:01:58;;;;;;;4.00;2.30;;;;;;;;;;5016320;28;20179;-68
2022/11/17 02:04:27;;;;;;;3.50;2.27;;;;;;;;;;5016060;28;20200;-66
2022/11/17 02:06:57;;;;;;;8.33;3.70;;;;;;;;;;5015928;28;20616;-68
2022/11/17 02:09:24;;;;;;;7.10;3.37;;;;;;;;;;5014755;28;20259;-67
2022/11/17 02:11:50;;;;;;;9.47;3.50;;;;;;;;;;5015973;28;20187;-68
2022/11/17 02:14:16;;;;;;;4.30;2.53;;;;;;;;;;5014456;28;20641;-68
2022/11/17 02:16:42;;;;;;;5.63;3.87;;;;;;;;;;5014809;28;20235;-68
2022/11/17 02:19:09;;;;;;;11.60;6.03;;;;;;;;;;5014372;28;20172;-67
2022/11/17 02:21:46;;;;;;;6.97;4.40;;;;;;;;;;5015681;28;20263;-67
2022/11/17 02:24:18;;;;;;;8.27;4.90;;;;;;;;;;5015649;28;20262;-65
2022/11/17 02:27:07;;;;;;;9.30;4.43;;;;;;;;;;5016073;28;20264;-66
2022/11/17 02:29:57;;;;;;;6.33;2.77;;;;;;;;;;4978399;28;20230;-66
2022/11/17 02:32:43;;;;;;;3.73;2.60;;;;;;;;;;5007581;28;20192;-66
2022/11/17 02:35:25;;;;;;;4.77;2.27;;;;;;;;;;5013867;28;20702;-65
2022/11/17 02:38:00;;;;;;;3.63;2.10;;;;;;;;;;5016018;28;20168;-65
2022/11/17 02:40:31;;;;;;;5.43;2.13;;;;;;;;;;5015515;28;20214;-65
2022/11/17 02:45:46;;;;;;;5.60;2.27;;;;;;;;;;5015405;28;20255;-66
2022/11/17 02:48:14;;;;;;;7.77;2.73;;;;;;;;;;5013657;28;20279;-65
2022/11/17 02:50:42;;;;;;;2.90;2.10;;;;;;;;;;5015226;28;20186;-66
2022/11/17 02:53:08;;;;;;;3.93;2.03;;;;;;;;;;5015025;28;20179;-65
2022/11/17 02:55:35;;;;;;;9.20;2.37;;;;;;;;;;5014951;28;20230;-66
2022/11/17 02:58:01;;;;;;;3.87;2.23;;;;;;;;;;5014772;28;20184;-66
2022/11/17 03:00:27;;;;;;;8.63;2.43;;;;;;;;;;5014881;28;20191;-67
2022/11/17 03:02:53;;;;;;;6.57;2.47;;;;;;;;;;5014936;28;20180;-68
2022/11/17 03:05:31;;;;;;;2.53;1.93;;;;;;;;;;5014685;28;20558;-67
2022/11/17 03:08:02;;;;;;;3.70;1.90;;;;;;;;;;5014804;28;20555;-67
2022/11/17 03:10:36;;;;;;;4.27;2.10;;;;;;;;;;5013580;28;20237;-66
2022/11/17 03:13:02;;;;;;;2.63;1.83;;;;;;;;;;5013701;28;20172;-65
2022/11/17 03:15:34;;;;;;;4.40;1.90;;;;;;;;;;5013239;28;20238;-65
2022/11/17 03:18:09;;;;;;;4.87;2.30;;;;;;;;;;5013612;28;20172;-66
2022/11/17 03:20:38;;;;;;;5.27;2.10;;;;;;;;;;5014434;28;20179;-66
2022/11/17 03:23:08;;;;;;;3.37;1.80;;;;;;;;;;5013196;28;20183;-66
2022/11/17 03:25:36;;;;;;;3.57;2.20;;;;;;;;;;5014295;28;20206;-67
2022/11/17 03:28:04;;;;;;;4.03;1.97;;;;;;;;;;5014417;28;20237;-65
2022/11/17 03:30:31;;;;;;;4.57;1.97;;;;;;;;;;5014974;28;20245;-65
2022/11/17 03:33:02;;;;;;;3.47;2.13;;;;;;;;;;5014210;28;20231;-65
2022/11/17 03:35:31;;;;;;;4.07;1.83;;;;;;;;;;5014221;28;20307;-65
2022/11/17 03:38:00;;;;;;;4.90;2.20;;;;;;;;;;5014508;28;20183;-68
2022/11/17 03:40:28;;;;;;;6.57;2.33;;;;;;;;;;5014446;28;20234;-67
2022/11/17 03:42:59;;;;;;;3.37;2.20;;;;;;;;;;5014498;28;20253;-68
2022/11/17 03:45:27;;;;;;;3.33;2.03;;;;;;;;;;5014460;28;20206;-65
2022/11/17 03:48:02;;;;;;;4.10;2.30;;;;;;;;;;5012777;28;20183;-65
2022/11/17 03:50:32;;;;;;;4.37;1.90;;;;;;;;;;5014116;28;20675;-65
2022/11/17 03:52:58;;;;;;;3.00;1.93;;;;;;;;;;5014254;28;20180;-64
2022/11/17 03:55:26;;;;;;;6.00;2.47;;;;;;;;;;5013855;28;20207;-64
2022/11/17 03:58:14;;;;;;;6.63;2.40;;;;;;;;;;5012695;28;20640;-65
2022/11/17 04:00:41;;;;;;;5.47;2.10;;;;;;;;;;5012714;28;20179;-65
2022/11/17 04:03:07;;;;;;;3.53;2.10;;;;;;;;;;5012626;28;20653;-65
2022/11/17 04:05:33;;;;;;;6.23;2.63;;;;;;;;;;5014943;28;20543;-66
2022/11/17 04:07:59;;;;;;;3.93;2.40;;;;;;;;;;5013030;28;20179;-64
2022/11/17 04:10:25;;;;;;;2.87;1.90;;;;;;;;;;5014016;28;20191;-65
2022/11/17 04:15:55;;;;;;;3.40;2.03;;;;;;;;;;5013773;28;20254;-65
2022/11/17 04:18:21;;;;;;;3.10;2.00;;;;;;;;;;5012839;28;20583;-65
2022/11/17 04:20:51;;;;;;;2.13;1.90;;;;;;;;;;5013050;28;20562;-64
2022/11/17 04:23:18;;;;;;;3.33;2.00;;;;;;;;;;5014798;28;20226;-67
2022/11/17 04:28:37;;;;;;;5.00;1.90;;;;;;;;;;5014503;28;20263;-64
2022/11/17 04:31:14;;;;;;;4.37;1.73;;;;;;;;;;5014404;28;20678;-64
2022/11/17 04:33:44;;;;;;;2.53;1.73;;;;;;;;;;5013652;28;20203;-65
2022/11/17 04:36:11;;;;;;;3.27;2.03;;;;;;;;;;5013919;28;20666;-64
2022/11/17 04:38:41;;;;;;;2.83;1.93;;;;;;;;;;5013973;28;20207;-64
2022/11/17 04:43:53;;;;;;;2.90;1.70;;;;;;;;;;5013580;28;20278;-65
2022/11/17 04:46:20;;;;;;;3.57;2.03;;;;;;;;;;5012338;28;20179;-65
2022/11/17 04:48:47;;;;;;;2.10;1.60;;;;;;;;;;5012605;28;20184;-65
2022/11/17 04:51:13;;;;;;;3.20;1.40;;;;;;;;;;5012296;28;20175;-65
2022/11/17 04:53:40;;;;;;;7.50;2.53;;;;;;;;;;5014055;28;20203;-65
2022/11/17 04:56:06;;;;;;;4.70;1.80;;;;;;;;;;5013785;28;20298;-66
2022/11/17 04:58:32;;;;;;;2.00;1.70;;;;;;;;;;5013467;28;20176;-65
2022/11/17 05:01:15;;;;;;;2.77;1.80;;;;;;;;;;5013641;28;20191;-65
2022/11/17 05:03:48;;;;;;;4.70;2.17;;;;;;;;;;5013589;28;20579;-65
2022/11/17 05:06:16;;;;;;;5.40;1.77;;;;;;;;;;5013901;28;20203;-65
2022/11/17 05:08:42;;;;;;;2.90;1.80;;;;;;;;;;5013968;28;20180;-65
2022/11/17 05:13:54;;;;;;;4.63;1.60;;;;;;;;;;5014171;28;20273;-66
2022/11/17 05:19:06;;;;;;;2.00;1.53;;;;;;;;;;5014218;28;20226;-65
2022/11/17 05:21:32;;;;;;;3.23;1.70;;;;;;;;;;5015249;28;20191;-66
2022/11/17 05:23:58;;;;;;;6.60;1.97;;;;;;;;;;5015449;28;20308;-65
2022/11/17 05:26:29;;;;;;;4.73;1.93;;;;;;;;;;5016950;28;20176;-67
2022/11/17 05:28:56;;;;;;;4.63;1.90;;;;;;;;;;5015542;28;20188;-66
2022/11/17 05:31:22;;;;;;;3.33;2.10;;;;;;;;;;5015380;28;20186;-66
2022/11/17 05:33:48;;;;;;;3.13;1.80;;;;;;;;;;5016587;28;20204;-65
2022/11/17 05:36:14;;;;;;;3.83;1.90;;;;;;;;;;5017086;28;20226;-66
2022/11/17 05:38:41;;;;;;;4.47;2.20;;;;;;;;;;5016831;28;20191;-69
2022/11/17 05:41:07;;;;;;;5.77;2.23;;;;;;;;;;5016450;28;20168;-66
2022/11/17 05:43:33;;;;;;;7.40;2.00;;;;;;;;;;5016720;28;20195;-66
2022/11/17 05:45:59;;;;;;;5.37;1.90;;;;;;;;;;5016303;28;20238;-66
2022/11/17 05:48:25;;;;;;;4.70;2.10;;;;;;;;;;5016357;28;20188;-65
2022/11/17 05:50:54;;;;;;;3.67;2.20;;;;;;;;;;5016229;28;20180;-65
2022/11/17 05:53:21;;;;;;;6.57;2.17;;;;;;;;;;5016222;28;20296;-65
2022/11/17 05:55:46;;;;;;;4.00;1.77;;;;;;;;;;5016463;28;20578;-66
2022/11/17 05:58:18;;;;;;;4.50;2.10;;;;;;;;;;5016341;28;20178;-66
2022/11/17 06:00:44;;;;;;;2.87;1.93;;;;;;;;;;5016117;28;20169;-66
2022/11/17 06:03:20;;;;;;;3.30;1.90;;;;;;;;;;5014613;28;20653;-66
2022/11/17 06:05:46;;;;;;;3.97;2.00;;;;;;;;;;5015949;28;20210;-65
2022/11/17 06:08:12;;;;;;;4.60;1.77;;;;;;;;;;5041002;22;20238;-68
2022/11/17 06:10:38;;;;;;;3.90;1.90;;;;;;;;;;5034322;28;20712;-69
2022/11/17 06:13:04;;;;;;;4.17;2.13;;;;;;;;;;5034318;28;20186;-67
2022/11/17 06:15:30;;;;;;;4.00;2.00;;;;;;;;;;5035746;28;20628;-68
2022/11/17 06:17:56;;;;;;;4.77;1.80;;;;;;;;;;5034549;28;20243;-68
2022/11/17 06:20:27;;;;;;;6.37;2.07;;;;;;;;;;5034284;28;20175;-68
2022/11/17 06:22:55;;;;;;;4.10;2.13;;;;;;;;;;5035371;28;20198;-68
2022/11/17 06:25:21;;;;;;;5.23;2.00;;;;;;;;;;5034197;28;20195;-68
2022/11/17 06:27:48;;;;;;;5.37;2.30;;;;;;;;;;5034414;28;20210;-68
2022/11/17 06:30:14;;;;;;;5.63;2.40;;;;;;;;;;5035735;28;20584;-68
2022/11/17 06:32:42;;;;;;;7.60;2.90;;;;;;;;;;5042621;28;20191;-68
2022/11/17 06:35:09;;;;;;;4.23;2.50;;;;;;;;;;5045947;28;20178;-70
2022/11/17 06:37:35;;;;;;;10.07;2.90;;;;;;;;;;5045317;28;20194;-69
2022/11/17 06:40:01;;;;;;;4.90;2.40;;;;;;;;;;5045450;28;20182;-68
2022/11/17 06:45:11;;;;;;;4.17;2.20;;;;;;;;;;5035135;28;20174;-68
2022/11/17 06:47:38;;;;;;;2.60;2.33;;;;;;;;;;5034743;28;20325;-68
2022/11/17 06:50:04;;;;;;;8.73;2.47;;;;;;;;;;5033517;28;20558;-68
2022/11/17 06:52:30;;;;;;;5.80;2.40;;;;;;;;;;5035150;28;20221;-68
2022/11/17 06:54:56;;;;;;;5.93;2.43;;;;;;;;;;5035324;28;20578;-68
2022/11/17 06:57:22;;;;;;;5.10;2.83;;;;;;;;;;5034500;28;20238;-68
2022/11/17 06:59:48;;;;;;;4.50;2.37;;;;;;;;;;5034537;28;20186;-68
2022/11/17 07:02:14;;;;;;;4.40;2.53;;;;;;;;;;5033275;28;20179;-69
2022/11/17 07:04:39;;;;;;;6.77;3.13;;;;;;;;;;5034410;28;20194;-68
2022/11/17 07:07:05;;;;;;;4.57;2.53;;;;;;;;;;5034645;28;20179;-68
2022/11/17 07:09:31;;;;;;;5.37;2.90;;;;;;;;;;5034242;28;20190;-68
2022/11/17 07:11:57;;;;;;;5.53;2.53;;;;;;;;;;5034276;28;20232;-68
2022/11/17 07:14:23;;;;;;;9.03;5.13;;;;;;;;;;5034459;28;20254;-68
2022/11/17 07:16:49;;;;;;;7.70;3.27;;;;;;;;;;5034203;28;20566;-70
2022/11/17 07:19:15;;;;;;;5.57;3.00;;;;;;;;;;5034370;28;20195;-68
2022/11/17 07:21:41;;;;;;;5.20;2.60;;;;;;;;;;5034070;28;20554;-68
2022/11/17 07:24:07;;;;;;;6.37;3.00;;;;;;;;;;5034010;28;20179;-69
2022/11/17 07:26:33;;;;;;;4.70;2.90;;;;;;;;;;5034572;28;20234;-69
2022/11/17 07:28:59;;;;;;;8.00;3.17;;;;;;;;;;5033940;28;20203;-69
2022/11/17 07:31:25;;;;;;;5.47;2.80;;;;;;;;;;5032571;28;20182;-69
2022/11/17 07:33:52;;;;;;;9.53;3.03;;;;;;;;;;5032581;28;20187;-69
2022/11/17 07:36:18;;;;;;;3.57;2.20;;;;;;;;;;5032397;28;20207;-69
2022/11/17 07:38:44;;;;;;;5.60;2.80;;;;;;;;;;5033637;28;20252;-69
2022/11/17 07:41:12;;;;;;;3.50;2.40;;;;;;;;;;5032421;28;20662;-69
2022/11/17 07:43:38;;;;;;;5.73;2.80;;;;;;;;;;5033458;28;20234;-69
2022/11/17 07:46:09;;;;;;;6.47;3.07;;;;;;;;;;5032389;28;20270;-68
2022/11/17 07:48:36;;;;;;;9.93;3.33;;;;;;;;;;5032168;28;20206;-69
2022/11/17 07:51:02;;;;;;;6.10;3.47;;;;;;;;;;5033561;28;20179;-67
2022/11/17 07:53:28;;;;;;;8.13;2.87;;;;;;;;;;5032305;28;20616;-68
2022/11/17 07:55:54;;;;;;;5.13;2.27;;;;;;;;;;5033330;28;20672;-68
2022/11/17 07:58:20;;;;;;;3.13;1.80;;;;;;;;;;5033362;28;20202;-67
2022/11/17 08:00:46;;;;;;;6.40;1.90;;;;;;;;;;5032157;28;20284;-69
2022/11/17 08:03:12;;;;;;;3.90;1.90;;;;;;;;;;5033429;28;20179;-69
2022/11/17 08:05:38;;;;;;;4.50;2.23;;;;;;;;;;5033349;28;20187;-69
2022/11/17 08:08:06;;;;;;;6.57;2.40;;;;;;;;;;5033139;28;20218;-69
2022/11/17 08:10:33;;;;;;;4.43;1.80;;;;;;;;;;5033740;28;20179;-67
2022/11/17 08:13:02;;;;;;;4.97;1.77;;;;;;;;;;5032099;28;20183;-69
2022/11/17 08:15:28;;;;;;;4.60;2.03;;;;;;;;;;5033592;28;20249;-69
2022/11/17 08:17:59;;;;;;;7.97;2.40;;;;;;;;;;5032111;28;20199;-68
2022/11/17 08:20:25;;;;;;;7.57;2.27;;;;;;;;;;5033347;28;20175;-69
2022/11/17 08:22:52;;;;;;;6.47;2.60;;;;;;;;;;5032507;28;20293;-69
2022/11/17 08:25:19;;;;;;;4.77;2.03;;;;;;;;;;5033239;28;20183;-69
2022/11/17 08:27:45;;;;;;;6.67;2.43;;;;;;;;;;5033187;28;20195;-69
2022/11/17 08:30:11;;;;;;;6.67;2.77;;;;;;;;;;5033256;28;20261;-69
2022/11/17 08:32:37;;;;;;;7.27;2.73;;;;;;;;;;5033170;28;20206;-69
2022/11/17 08:35:04;;;;;;;5.67;3.33;;;;;;;;;;5033364;28;20167;-69
2022/11/17 08:37:30;;;;;;;5.03;2.80;;;;;;;;;;5033017;28;20203;-68
2022/11/17 08:39:56;;;;;;;6.70;3.20;;;;;;;;;;5033422;28;20202;-69
2022/11/17 08:42:22;;;;;;;4.53;2.30;;;;;;;;;;5031605;28;20543;-70
2022/11/17 08:44:48;;;;;;;3.07;1.73;;;;;;;;;;5031867;28;20244;-69
2022/11/17 08:47:14;;;;;;;3.93;2.40;;;;;;;;;;5031739;28;20191;-70
2022/11/17 08:49:40;;;;;;;9.50;2.87;;;;;;;;;;5031993;28;20183;-68
2022/11/17 08:52:06;;;;;;;6.80;2.60;;;;;;;;;;5032135;28;20190;-69
2022/11/17 08:54:32;;;;;;;6.03;2.97;;;;;;;;;;5032384;28;20270;-70
2022/11/17 08:56:59;;;;;;;7.80;3.17;;;;;;;;;;5035555;28;20290;-69
2022/11/17 08:59:25;;;;;;;8.10;3.67;;;;;;;;;;5037737;28;20226;-69
2022/11/17 09:01:51;;;;;;;10.73;3.57;;;;;;;;;;5036066;28;20278;-68
2022/11/17 09:04:17;;;;;;;7.57;3.80;;;;;;;;;;5035951;28;20175;-69
2022/11/17 09:06:43;;;;;;;9.53;3.77;;;;;;;;;;5037198;28;20208;-69
2022/11/17 09:09:09;;;;;;;12.20;3.80;;;;;;;;;;5035790;28;20758;-69
2022/11/17 09:11:35;;;;;;;9.37;2.73;;;;;;;;;;5036799;28;20233;-71
2022/11/17 09:14:01;;;;;;;6.47;1.97;;;;;;;;;;5037268;28;20262;-70
2022/11/17 09:16:27;;;;;;;5.63;1.90;;;;;;;;;;5035641;28;20199;-70
2022/11/17 09:18:55;;;;;;;4.20;1.80;;;;;;;;;;5036824;28;20195;-70
2022/11/17 09:21:21;;;;;;;3.43;1.73;;;;;;;;;;5035581;28;20186;-68
2022/11/17 09:23:47;;;;;;;4.47;1.70;;;;;;;;;;5035293;28;20175;-70
2022/11/17 09:26:14;;;;;;;3.67;2.00;;;;;;;;;;5036690;28;20225;-70
2022/11/17 09:28:40;;;;;;;4.10;1.93;;;;;;;;;;5035291;28;20203;-69
2022/11/17 09:31:07;;;;;;;3.07;1.50;;;;;;;;;;5035170;28;20608;-69
2022/11/17 09:33:34;;;;;;;3.50;2.00;;;;;;;;;;5036241;28;20205;-69
2022/11/17 09:36:00;;;;;;;3.50;2.10;;;;;;;;;;5034906;28;20216;-69
2022/11/17 09:38:25;;;;;;;2.43;1.60;;;;;;;;;;5034820;28;20203;-69
2022/11/17 09:40:54;;;;;;;4.00;1.70;;;;;;;;;;5034773;28;20273;-69
2022/11/17 09:43:25;;;;;;;4.93;1.70;;;;;;;;;;5036167;28;20171;-71
2022/11/17 09:45:53;;;;;;;3.33;1.37;;;;;;;;;;5036278;28;20159;-69
2022/11/17 09:48:30;;;;;;;4.07;2.07;;;;;;;;;;5036263;28;20264;-70
2022/11/17 09:50:58;;;;;;;4.63;1.73;;;;;;;;;;5034565;28;20175;-69
2022/11/17 09:53:27;;;;;;;3.17;1.80;;;;;;;;;;5036110;28;20190;-69
2022/11/17 09:55:55;;;;;;;5.47;1.77;;;;;;;;;;5036000;28;20209;-69
2022/11/17 09:58:21;;;;;;;2.23;1.50;;;;;;;;;;5036044;28;20195;-69
2022/11/17 10:00:49;;;;;;;3.87;1.90;;;;;;;;;;5035807;28;20179;-69
2022/11/17 10:03:17;;;;;;;4.53;1.63;;;;;;;;;;5034478;28;20600;-69
2022/11/17 10:05:43;;;;;;;5.03;2.07;;;;;;;;;;5035724;28;20606;-69
2022/11/17 10:08:12;;;;;;;5.27;2.20;;;;;;;;;;5033977;28;20219;-69
2022/11/17 10:10:46;;;;;;;2.37;1.40;;;;;;;;;;5035302;28;20187;-69
2022/11/17 10:13:32;;;;;;;4.47;2.17;;;;;;;;;;5034036;28;20183;-68
2022/11/17 10:16:06;;;;;;;3.17;1.90;;;;;;;;;;5035082;28;20223;-69
2022/11/17 10:18:34;;;;;;;4.73;1.90;;;;;;;;;;5033930;28;20195;-69
2022/11/17 10:21:00;;;;;;;4.53;2.07;;;;;;;;;;5035303;28;20278;-69
2022/11/17 10:23:29;;;;;;;3.10;1.80;;;;;;;;;;5035880;28;20648;-69
2022/11/17 10:25:56;;;;;;;3.07;1.97;;;;;;;;;;5035010;28;20187;-69
2022/11/17 10:28:26;;;;;;;3.80;1.87;;;;;;;;;;5034975;28;20709;-69
2022/11/17 10:30:59;;;;;;;4.97;2.23;;;;;;;;;;5035514;28;20172;-69
2022/11/17 10:33:34;;;;;;;4.43;1.67;;;;;;;;;;5034962;28;20550;-69
2022/11/17 10:36:00;;;;;;;5.00;2.20;;;;;;;;;;5035185;28;20634;-69
2022/11/17 10:38:27;;;;;;;5.30;2.30;;;;;;;;;;5034971;28;20394;-68
2022/11/17 10:40:54;;;;;;;3.60;2.37;;;;;;;;;;5034806;28;20175;-69
2022/11/17 10:43:23;;;;;;;3.10;2.37;;;;;;;;;;5034957;28;20670;-69
2022/11/17 10:45:51;;;;;;;4.20;2.33;;;;;;;;;;5034747;28;20232;-69
2022/11/17 10:48:35;;;;;;;3.27;2.03;;;;;;;;;;5033395;28;20199;-69
2022/11/17 10:51:08;;;;;;;4.53;2.00;;;;;;;;;;5034935;28;20237;-69
2022/11/17 10:53:35;;;;;;;5.00;2.30;;;;;;;;;;5033495;28;20675;-69
2022/11/17 10:56:20;;;;;;;4.77;2.30;;;;;;;;;;5033315;28;20206;-69
2022/11/17 10:58:55;;;;;;;3.60;2.50;;;;;;;;;;5034343;28;20186;-69
2022/11/17 11:01:35;;;;;;;2.97;1.73;;;;;;;;;;5034269;28;20262;-70
2022/11/17 11:04:01;;;;;;;2.77;2.20;;;;;;;;;;5033003;28;20179;-69
2022/11/17 11:06:29;;;;;;;3.97;2.60;;;;;;;;;;5034412;28;20254;-70
2022/11/17 11:08:58;;;;;;;3.00;2.10;;;;;;;;;;5033129;28;20625;-69
2022/11/17 11:11:40;;;;;;;2.87;1.70;;;;;;;;;;5033048;28;20214;-70
2022/11/17 11:14:15;;;;;;;4.07;1.77;;;;;;;;;;5034395;28;20171;-69
2022/11/17 11:16:43;;;;;;;4.23;1.60;;;;;;;;;;5032829;28;20213;-70
2022/11/17 11:19:12;;;;;;;2.93;2.00;;;;;;;;;;5033567;28;20628;-70
2022/11/17 11:21:45;;;;;;;5.73;2.37;;;;;;;;;;5033107;28;20591;-69
2022/11/17 11:24:11;;;;;;;4.77;2.80;;;;;;;;;;5032724;28;20170;-69
2022/11/17 11:26:43;;;;;;;4.80;2.43;;;;;;;;;;5033950;28;20187;-69
2022/11/17 11:29:09;;;;;;;5.43;1.90;;;;;;;;;;5034121;28;20214;-69
2022/11/17 11:31:47;;;;;;;2.70;1.47;;;;;;;;;;5034042;28;20187;-69
2022/11/17 11:34:22;;;;;;;2.77;1.33;;;;;;;;;;5034072;28;20171;-69
2022/11/17 11:37:03;;;;;;;3.63;1.80;;;;;;;;;;5032482;28;20210;-70
2022/11/17 11:39:34;;;;;;;4.90;1.87;;;;;;;;;;5034028;28;20167;-70
2022/11/17 11:42:08;;;;;;;4.03;1.87;;;;;;;;;;5034006;28;20266;-69
2022/11/17 11:44:33;;;;;;;2.00;1.80;;;;;;;;;;5033788;28;20155;-71
2022/11/17 11:47:11;;;;;;;4.47;2.00;;;;;;;;;;5034255;28;20258;-69
2022/11/17 11:49:58;;;;;;;6.73;5.63;;;;;;;;;;5033972;28;20250;-70
2022/11/17 11:52:27;;;;;;;5.43;2.10;;;;;;;;;;5033752;28;20190;-69
2022/11/17 11:55:00;;;;;;;3.37;1.90;;;;;;;;;;5033534;28;20186;-69
2022/11/17 11:57:34;;;;;;;2.77;1.70;;;;;;;;;;5033250;28;20230;-69
2022/11/17 12:00:05;;;;;;;4.00;2.10;;;;;;;;;;5034141;28;20535;-70
2022/11/17 12:02:37;;;;;;;5.93;2.20;;;;;;;;;;5033530;28;20175;-69
2022/11/17 12:05:06;;;;;;;4.37;2.20;;;;;;;;;;5033683;28;20164;-70
2022/11/17 12:07:51;;;;;;;3.63;2.13;;;;;;;;;;5033245;28;20276;-69
2022/11/17 12:10:41;;;;;;;3.43;1.90;;;;;;;;;;5059634;22;20231;-69
2022/11/17 12:13:12;;;;;;;3.20;1.80;;;;;;;;;;5034249;28;20623;-71
2022/11/17 12:15:38;;;;;;;4.07;1.73;;;;;;;;;;5032682;28;20571;-70
2022/11/17 12:18:24;;;;;;;3.33;1.43;;;;;;;;;;5033876;28;20230;-70
2022/11/17 12:20:54;;;;;;;3.40;2.00;;;;;;;;;;5012482;28;20630;-69
2022/11/17 12:23:37;;;;;;;4.30;1.40;;;;;;;;;;5014111;28;20208;-69
2022/11/17 12:26:03;;;;;;;2.47;1.57;;;;;;;;;;5014064;28;20237;-70
2022/11/17 12:28:31;;;;;;;5.03;1.77;;;;;;;;;;5014009;28;20180;-68
2022/11/17 12:30:57;;;;;;;3.83;2.23;;;;;;;;;;5013710;28;20687;-69
2022/11/17 12:33:23;;;;;;;6.00;1.70;;;;;;;;;;5012571;28;20187;-70
2022/11/17 12:36:07;;;;;;;1.90;1.60;;;;;;;;;;5014106;28;20202;-70
2022/11/17 12:38:33;;;;;;;4.53;1.60;;;;;;;;;;5012626;28;20557;-70
2022/11/17 12:40:59;;;;;;;3.67;2.07;;;;;;;;;;5013997;28;20171;-70
2022/11/17 12:43:26;;;;;;;2.53;1.60;;;;;;;;;;5012711;28;20187;-70
2022/11/17 12:45:55;;;;;;;2.13;1.80;;;;;;;;;;5014367;28;20267;-70
2022/11/17 12:48:22;;;;;;;4.50;1.70;;;;;;;;;;5012908;28;20187;-70
2022/11/17 12:51:07;;;;;;;3.80;1.80;;;;;;;;;;5014117;28;20183;-70
2022/11/17 12:53:41;;;;;;;3.27;2.30;;;;;;;;;;5013519;28;20187;-70
2022/11/17 12:56:10;;;;;;;6.03;2.00;;;;;;;;;;5015026;28;20214;-70
2022/11/17 12:58:57;;;;;;;7.03;2.50;;;;;;;;;;5014834;28;20238;-70
2022/11/17 13:01:32;;;;;;;4.47;2.30;;;;;;;;;;5013700;28;20176;-70
2022/11/17 13:03:58;;;;;;;5.27;1.93;;;;;;;;;;5013980;28;20640;-70
2022/11/17 13:06:24;;;;;;;3.60;1.90;;;;;;;;;;5012816;28;20241;-71
2022/11/17 13:09:00;;;;;;;6.77;2.43;;;;;;;;;;5014161;28;20261;-70
2022/11/17 13:11:27;;;;;;;3.47;1.90;;;;;;;;;;5013498;28;20180;-70
2022/11/17 13:14:09;;;;;;;3.20;2.27;;;;;;;;;;5014699;28;20180;-71
2022/11/17 13:16:36;;;;;;;3.13;1.53;;;;;;;;;;5014089;28;20345;-70
2022/11/17 13:19:02;;;;;;;4.03;1.57;;;;;;;;;;5015794;28;20586;-70
2022/11/17 13:21:29;;;;;;;1.83;1.60;;;;;;;;;;5014237;28;20172;-70
2022/11/17 13:23:56;;;;;;;2.20;1.40;;;;;;;;;;5013098;28;20183;-70
2022/11/17 13:26:37;;;;;;;4.87;2.03;;;;;;;;;;5014681;28;20587;-70
2022/11/17 13:29:07;;;;;;;4.87;1.73;;;;;;;;;;5014644;28;20198;-69
2022/11/17 13:31:33;;;;;;;2.40;1.27;;;;;;;;;;5015593;28;20174;-72
2022/11/17 13:34:05;;;;;;;2.03;1.47;;;;;;;;;;5014798;28;20211;-71
2022/11/17 13:36:31;;;;;;;6.37;1.60;;;;;;;;;;5015176;28;20645;-71
2022/11/17 13:38:59;;;;;;;2.23;1.30;;;;;;;;;;5013672;28;20279;-71
2022/11/17 13:41:25;;;;;;;5.70;2.93;;;;;;;;;;5013294;28;20199;-71
2022/11/17 13:43:52;;;;;;;4.50;1.83;;;;;;;;;;5018764;28;20211;-70
2022/11/17 13:46:19;;;;;;;5.37;1.67;;;;;;;;;;5017834;28;20183;-71
2022/11/17 13:48:45;;;;;;;3.87;1.73;;;;;;;;;;5017764;28;20280;-69
2022/11/17 13:51:37;;;;;;;5.30;1.60;;;;;;;;;;5018890;28;20187;-71
2022/11/17 13:54:16;;;;;;;6.57;1.80;;;;;;;;;;5019145;28;20191;-70
2022/11/17 13:56:45;;;;;;;2.40;1.30;;;;;;;;;;5019904;28;20206;-69
2022/11/17 13:59:17;;;;;;;4.20;1.70;;;;;;;;;;5021311;28;20195;-70
2022/11/17 14:01:44;;;;;;;2.87;1.33;;;;;;;;;;5025105;28;20187;-71
2022/11/17 14:04:17;;;;;;;5.23;1.63;;;;;;;;;;5025917;28;20204;-70
2022/11/17 14:07:00;;;;;;;4.40;1.60;;;;;;;;;;5025354;28;20188;-70
2022/11/17 14:09:27;;;;;;;6.57;1.70;;;;;;;;;;5026771;28;20219;-70
2022/11/17 14:11:54;;;;;;;3.77;1.67;;;;;;;;;;5025514;28;20259;-70
2022/11/17 14:14:30;;;;;;;2.70;1.60;;;;;;;;;;5027413;28;20628;-71
2022/11/17 14:16:56;;;;;;;2.73;1.30;;;;;;;;;;5026882;28;20278;-70
2022/11/17 14:19:24;;;;;;;4.83;1.40;;;;;;;;;;5025654;28;20202;-70
2022/11/17 14:22:20;;;;;;;4.07;1.50;;;;;;;;;;5025422;28;20271;-70
2022/11/17 14:24:46;;;;;;;1.73;1.30;;;;;;;;;;5020780;28;20187;-70
2022/11/17 14:27:30;;;;;;;5.20;1.77;;;;;;;;;;5035053;28;20196;-71
2022/11/17 14:29:56;;;;;;;3.00;1.63;;;;;;;;;;5034367;28;20246;-71
2022/11/17 14:32:22;;;;;;;4.07;1.50;;;;;;;;;;5030413;28;20258;-71
2022/11/17 14:34:48;;;;;;;4.60;1.80;;;;;;;;;;5025823;28;20179;-70
2022/11/17 14:37:14;;;;;;;5.17;1.63;;;;;;;;;;5027420;28;20231;-69
2022/11/17 14:39:40;;;;;;;5.50;1.90;;;;;;;;;;5026962;28;20234;-71
2022/11/17 14:42:06;;;;;;;3.70;1.87;;;;;;;;;;5026677;28;20546;-71
2022/11/17 14:44:32;;;;;;;3.40;1.60;;;;;;;;;;5026443;28;20207;-70
2022/11/17 14:46:58;;;;;;;4.33;1.70;;;;;;;;;;5027223;28;20176;-70
2022/11/17 14:49:24;;;;;;;4.17;1.90;;;;;;;;;;5024769;28;20608;-70
2022/11/17 14:51:50;;;;;;;3.93;1.70;;;;;;;;;;5024823;28;20182;-70
2022/11/17 14:54:16;;;;;;;4.17;1.93;;;;;;;;;;5022180;28;20211;-70
2022/11/17 14:56:42;;;;;;;7.13;2.17;;;;;;;;;;5022799;28;20207;-70
2022/11/17 14:59:10;;;;;;;4.27;1.70;;;;;;;;;;5022013;28;20196;-70
2022/11/17 15:01:37;;;;;;;5.73;1.63;;;;;;;;;;5021748;28;20184;-70
2022/11/17 15:04:04;;;;;;;5.00;2.30;;;;;;;;;;5023563;28;20657;-70
2022/11/17 15:06:30;;;;;;;3.50;1.70;;;;;;;;;;5024070;28;20176;-70
2022/11/17 15:08:57;;;;;;;6.27;2.10;;;;;;;;;;5021055;28;20762;-70
2022/11/17 15:11:23;;;;;;;3.17;1.93;;;;;;;;;;5022622;28;20190;-70
2022/11/17 15:13:49;;;;;;;6.93;2.20;;;;;;;;;;5021516;28;20672;-70
2022/11/17 15:16:16;;;;;;;8.00;2.33;;;;;;;;;;5020307;28;20204;-71
2022/11/17 15:18:45;;;;;;;6.43;2.20;;;;;;;;;;5022396;28;20191;-70
2022/11/17 15:21:11;;;;;;;5.03;2.00;;;;;;;;;;5022691;28;20239;-71
2022/11/17 15:23:38;;;;;;;5.73;1.97;;;;;;;;;;5020736;28;20238;-71
2022/11/17 15:26:05;;;;;;;6.57;2.10;;;;;;;;;;5022135;28;20176;-70